createdAt,value
2018-11-03T00:00:44.255Z,102162.00
2018-11-03T00:03:13.191Z,102154.00
2018-11-03T00:05:42.082Z,102151.00
2018-11-03T00:08:10.976Z,102149.00
2018-11-03T00:10:39.853Z,102147.00
2018-11-03T00:13:08.733Z,102140.00
2018-11-03T00:15:37.762Z,102140.00
2018-11-03T00:18:06.992Z,102130.00
2018-11-03T00:20:35.914Z,102130.00
2018-11-03T00:23:04.872Z,102140.00
2018-11-03T00:25:33.840Z,102134.00
2018-11-03T00:28:02.787Z,102131.00
2018-11-03T00:30:31.688Z,102132.00
2018-11-03T00:33:00.598Z,102137.00
2018-11-03T00:35:29.483Z,102139.00
2018-11-03T00:37:58.378Z,102137.00
2018-11-03T00:40:27.340Z,102125.00
2018-11-03T00:42:56.305Z,102141.00
2018-11-03T00:45:25.194Z,102140.00
2018-11-03T00:47:54.131Z,102139.00
2018-11-03T00:50:23.033Z,102143.00
2018-11-03T00:52:52.003Z,102150.00
2018-11-03T00:55:20.875Z,102147.00
2018-11-03T00:57:49.767Z,102134.00
2018-11-03T01:00:19.258Z,102146.00
2018-11-03T01:02:49.166Z,102139.00
2018-11-03T01:05:18.113Z,102147.00
2018-11-03T01:07:47.601Z,102143.00
2018-11-03T01:10:17.435Z,102129.00
2018-11-03T01:12:46.403Z,102142.00
2018-11-03T01:15:16.491Z,102145.00
2018-11-03T01:17:45.575Z,102160.00
2018-11-03T01:20:15.802Z,102150.00
2018-11-03T01:22:44.866Z,102152.00
2018-11-03T01:25:13.820Z,102148.00
2018-11-03T01:27:42.719Z,102145.00
2018-11-03T01:30:14.340Z,102142.00
2018-11-03T01:32:43.484Z,102146.00
2018-11-03T01:35:12.245Z,102148.00
2018-11-03T01:37:41.269Z,102145.00
2018-11-03T01:40:12.163Z,102145.00
2018-11-03T01:42:41.046Z,102150.00
2018-11-03T01:45:10.142Z,102151.00
2018-11-03T01:47:39.060Z,102148.00
2018-11-03T01:50:10.648Z,102156.00
2018-11-03T01:52:40.379Z,102155.00
2018-11-03T01:55:09.371Z,102152.00
2018-11-03T01:57:38.700Z,102155.00
2018-11-03T02:00:08.794Z,102162.00
2018-11-03T02:02:37.767Z,102154.00
2018-11-03T02:05:07.703Z,102154.00
2018-11-03T02:07:36.640Z,102149.00
2018-11-03T02:10:07.442Z,102151.00
2018-11-03T02:12:36.360Z,102155.00
2018-11-03T02:15:05.411Z,102154.00
2018-11-03T02:17:34.327Z,102167.00
2018-11-03T02:20:03.301Z,102168.00
2018-11-03T02:22:32.307Z,102167.00
2018-11-03T02:25:01.198Z,102174.00
2018-11-03T02:27:30.104Z,102171.00
2018-11-03T02:29:59.991Z,102166.00
2018-11-03T02:32:28.879Z,102175.00
2018-11-03T02:34:57.797Z,102164.00
2018-11-03T02:37:26.639Z,102168.00
2018-11-03T02:39:55.630Z,102169.00
2018-11-03T02:42:24.583Z,102173.00
2018-11-03T02:44:53.541Z,102182.00
2018-11-03T02:47:22.419Z,102178.00
2018-11-03T02:49:51.315Z,102198.00
2018-11-03T02:52:20.300Z,102194.00
2018-11-03T02:54:49.206Z,102198.00
2018-11-03T02:57:18.088Z,102199.00
2018-11-03T02:59:47.075Z,102198.00
2018-11-03T03:02:16.125Z,102199.00
2018-11-03T03:04:45.071Z,102214.00
2018-11-03T03:07:13.999Z,102221.00
2018-11-03T03:09:42.946Z,102216.00
2018-11-03T03:12:11.917Z,102212.00
2018-11-03T03:14:40.831Z,102225.00
2018-11-03T03:17:09.790Z,102219.00
2018-11-03T03:19:38.734Z,102213.00
2018-11-03T03:22:07.611Z,102216.00
2018-11-03T03:24:36.496Z,102222.00
2018-11-03T03:27:05.594Z,102224.00
2018-11-03T03:29:34.508Z,102245.00
2018-11-03T03:32:03.470Z,102246.00
2018-11-03T03:34:32.365Z,102244.00
2018-11-03T03:37:01.256Z,102235.00
2018-11-03T03:39:30.122Z,102234.00
2018-11-03T03:44:07.980Z,102232.00
2018-11-03T03:46:36.934Z,102231.00
2018-11-03T03:49:06.211Z,102234.00
2018-11-03T03:51:35.131Z,102220.00
2018-11-03T03:54:04.105Z,102224.00
2018-11-03T03:56:33.052Z,102220.00
2018-11-03T03:59:03.789Z,102219.00
2018-11-03T04:01:32.722Z,102223.00
2018-11-03T04:04:01.623Z,102215.00
2018-11-03T04:06:30.583Z,102231.00
2018-11-03T04:08:59.539Z,102230.00
2018-11-03T04:11:28.531Z,102226.00
2018-11-03T04:13:57.515Z,102229.00
2018-11-03T04:16:26.412Z,102242.00
2018-11-03T04:18:55.280Z,102236.00
2018-11-03T04:21:28.950Z,102232.00
2018-11-03T04:23:58.238Z,102225.00
2018-11-03T04:26:28.776Z,102229.00
2018-11-03T04:28:58.374Z,102225.00
2018-11-03T04:31:27.885Z,102227.00
2018-11-03T04:33:57.094Z,102226.00
2018-11-03T04:36:26.166Z,102226.00
2018-11-03T04:38:55.158Z,102225.00
2018-11-03T04:41:24.095Z,102237.00
2018-11-03T04:43:53.008Z,102232.00
2018-11-03T04:46:21.963Z,102236.00
2018-11-03T04:48:55.048Z,102239.00
2018-11-03T04:51:23.952Z,102242.00
2018-11-03T04:53:52.840Z,102242.00
2018-11-03T04:56:21.753Z,102249.00
2018-11-03T04:58:50.710Z,102241.00
2018-11-03T05:01:19.634Z,102244.00
2018-11-03T05:03:48.496Z,102255.00
2018-11-03T05:06:18.406Z,102261.00
2018-11-03T05:08:47.581Z,102261.00
2018-11-03T05:11:16.529Z,102268.00
2018-11-03T05:13:45.507Z,102274.00
2018-11-03T05:16:14.402Z,102270.00
2018-11-03T05:18:43.436Z,102281.00
2018-11-03T05:21:12.349Z,102277.00
2018-11-03T05:23:41.154Z,102287.00
2018-11-03T05:26:10.046Z,102285.00
2018-11-03T05:28:38.951Z,102284.00
2018-11-03T05:31:07.865Z,102275.00
2018-11-03T05:33:36.702Z,102287.00
2018-11-03T05:36:05.830Z,102281.00
2018-11-03T05:38:34.816Z,102274.00
2018-11-03T05:41:03.691Z,102279.00
2018-11-03T05:43:32.606Z,102279.00
2018-11-03T05:46:02.498Z,102278.00
2018-11-03T05:48:31.396Z,102276.00
2018-11-03T05:51:00.363Z,102276.00
2018-11-03T05:53:29.254Z,102271.00
2018-11-03T05:55:58.174Z,102275.00
2018-11-03T05:58:27.034Z,102284.00
2018-11-03T06:00:55.933Z,102280.00
2018-11-03T06:03:24.815Z,102287.00
2018-11-03T06:05:53.700Z,102290.00
2018-11-03T06:08:22.615Z,102286.00
2018-11-03T06:10:51.488Z,102279.00
2018-11-03T06:13:20.438Z,102289.00
2018-11-03T06:15:49.376Z,102298.00
2018-11-03T06:18:18.239Z,102309.00
2018-11-03T06:20:47.219Z,102297.00
2018-11-03T06:23:16.167Z,102299.00
2018-11-03T06:25:45.086Z,102305.00
2018-11-03T06:28:14.066Z,102310.00
2018-11-03T06:30:42.894Z,102311.00
2018-11-03T06:33:11.871Z,102312.00
2018-11-03T06:35:40.786Z,102308.00
2018-11-03T06:38:09.708Z,102326.00
2018-11-03T06:40:38.622Z,102316.00
2018-11-03T06:43:07.658Z,102325.00
2018-11-03T06:45:36.587Z,102327.00
2018-11-03T06:48:06.167Z,102328.00
2018-11-03T06:50:35.073Z,102330.00
2018-11-03T06:53:03.979Z,102332.00
2018-11-03T06:55:32.907Z,102329.00
2018-11-03T06:58:01.999Z,102340.00
2018-11-03T07:00:31.042Z,102349.00
2018-11-03T07:02:59.949Z,102344.00
2018-11-03T07:05:28.839Z,102344.00
2018-11-03T07:07:57.707Z,102345.00
2018-11-03T07:10:26.699Z,102341.00
2018-11-03T07:12:55.666Z,102353.00
2018-11-03T07:15:24.552Z,102350.00
2018-11-03T07:17:53.370Z,102355.00
2018-11-03T07:20:22.262Z,102361.00
2018-11-03T07:22:51.165Z,102358.00
2018-11-03T07:25:20.046Z,102370.00
2018-11-03T07:27:48.953Z,102366.00
2018-11-03T07:30:17.950Z,102369.00
2018-11-03T07:32:46.880Z,102363.00
2018-11-03T07:35:15.815Z,102355.00
2018-11-03T07:37:44.777Z,102362.00
2018-11-03T07:40:13.602Z,102353.00
2018-11-03T07:42:42.935Z,102360.00
2018-11-03T07:45:11.800Z,102359.00
2018-11-03T07:47:41.118Z,102357.00
2018-11-03T07:50:11.864Z,102355.00
2018-11-03T07:52:41.354Z,102355.00
2018-11-03T07:55:11.701Z,102356.00
2018-11-03T07:57:40.998Z,102355.00
2018-11-03T08:00:12.345Z,102359.00
2018-11-03T08:02:41.303Z,102352.00
2018-11-03T08:05:11.658Z,102352.00
2018-11-03T08:07:40.627Z,102352.00
2018-11-03T08:10:10.759Z,102351.00
2018-11-03T08:12:39.738Z,102361.00
2018-11-03T08:15:09.971Z,102358.00
2018-11-03T08:17:39.298Z,102356.00
2018-11-03T08:20:10.041Z,102362.00
2018-11-03T08:22:39.345Z,102350.00
2018-11-03T08:25:08.602Z,102350.00
2018-11-03T08:27:37.615Z,102350.00
2018-11-03T08:30:10.041Z,102355.00
2018-11-03T08:32:39.283Z,102356.00
2018-11-03T08:35:09.420Z,102356.00
2018-11-03T08:37:38.682Z,102361.00
2018-11-03T08:40:09.854Z,102360.00
2018-11-03T08:42:39.136Z,102351.00
2018-11-03T08:45:08.639Z,102360.00
2018-11-03T08:47:37.598Z,102361.00
2018-11-03T08:50:08.871Z,102368.00
2018-11-03T08:52:37.883Z,102364.00
2018-11-03T08:55:08.525Z,102362.00
2018-11-03T08:57:37.423Z,102364.00
2018-11-03T09:00:09.911Z,102365.00
2018-11-03T09:02:39.066Z,102367.00
2018-11-03T09:05:08.661Z,102367.00
2018-11-03T09:07:38.066Z,102368.00
2018-11-03T09:10:11.005Z,102368.00
2018-11-03T09:12:39.941Z,102359.00
2018-11-03T09:15:11.093Z,102369.00
2018-11-03T09:17:41.023Z,102369.00
2018-11-03T09:20:11.637Z,102366.00
2018-11-03T09:22:40.947Z,102370.00
2018-11-03T09:25:12.504Z,102373.00
2018-11-03T09:27:42.413Z,102369.00
2018-11-03T09:30:15.523Z,102375.00
2018-11-03T09:32:44.450Z,102383.00
2018-11-03T09:35:14.502Z,102377.00
2018-11-03T09:37:43.510Z,102390.00
2018-11-03T09:40:15.151Z,102383.00
2018-11-03T09:42:45.184Z,102388.00
2018-11-03T09:45:14.462Z,102378.00
2018-11-03T09:47:43.874Z,102384.00
2018-11-03T09:50:14.322Z,102382.00
2018-11-03T09:52:43.592Z,102388.00
2018-11-03T09:55:15.094Z,102386.00
2018-11-03T09:57:44.125Z,102388.00
2018-11-03T10:00:15.198Z,102393.00
2018-11-03T10:02:44.075Z,102388.00
2018-11-03T10:05:13.861Z,102382.00
2018-11-03T10:07:42.818Z,102386.00
2018-11-03T10:10:14.220Z,102382.00
2018-11-03T10:12:43.310Z,102373.00
2018-11-03T10:15:13.682Z,102366.00
2018-11-03T10:17:43.115Z,102368.00
2018-11-03T10:20:12.043Z,102371.00
2018-11-03T10:22:41.045Z,102373.00
2018-11-03T10:25:14.593Z,102370.00
2018-11-03T10:27:44.240Z,102367.00
2018-11-03T10:30:14.662Z,102362.00
2018-11-03T10:32:43.830Z,102371.00
2018-11-03T10:35:13.329Z,102360.00
2018-11-03T10:37:42.521Z,102366.00
2018-11-03T10:40:13.972Z,102373.00
2018-11-03T10:42:43.365Z,102373.00
2018-11-03T10:45:13.622Z,102371.00
2018-11-03T10:47:43.441Z,102359.00
2018-11-03T10:50:19.284Z,102363.00
2018-11-03T10:55:45.327Z,102363.00
2018-11-03T10:58:14.216Z,102365.00
2018-11-03T11:00:48.528Z,102356.00
2018-11-03T11:03:22.771Z,102353.00
2018-11-03T11:05:52.654Z,102356.00
2018-11-03T11:08:27.750Z,102359.00
2018-11-03T11:11:02.050Z,102362.00
2018-11-03T11:13:32.549Z,102363.00
2018-11-03T11:16:01.648Z,102355.00
2018-11-03T11:18:30.513Z,102353.00
2018-11-03T11:20:59.428Z,102349.00
2018-11-03T11:23:28.359Z,102344.00
2018-11-03T11:25:57.307Z,102348.00
2018-11-03T11:28:26.323Z,102353.00
2018-11-03T11:30:55.207Z,102342.00
2018-11-03T11:33:24.083Z,102344.00
2018-11-03T11:35:52.974Z,102333.00
2018-11-03T11:38:21.864Z,102331.00
2018-11-03T11:40:50.768Z,102326.00
2018-11-03T11:43:19.740Z,102327.00
2018-11-03T11:45:48.514Z,102328.00
2018-11-03T11:48:17.467Z,102321.00
2018-11-03T11:50:46.567Z,102332.00
2018-11-03T11:53:15.467Z,102331.00
2018-11-03T11:55:44.369Z,102327.00
2018-11-03T11:58:13.342Z,102327.00
2018-11-03T12:00:42.315Z,102323.00
2018-11-03T12:03:11.315Z,102327.00
2018-11-03T12:05:40.268Z,102331.00
2018-11-03T12:08:09.146Z,102323.00
2018-11-03T12:10:38.051Z,102318.00
2018-11-03T12:13:06.910Z,102327.00
2018-11-03T12:15:35.926Z,102321.00
2018-11-03T12:18:04.999Z,102330.00
2018-11-03T12:20:34.583Z,102325.00
2018-11-03T12:23:03.631Z,102332.00
2018-11-03T12:25:32.550Z,102326.00
2018-11-03T12:28:01.401Z,102320.00
2018-11-03T12:30:30.278Z,102329.00
2018-11-03T12:32:59.173Z,102328.00
2018-11-03T12:35:28.103Z,102316.00
2018-11-03T12:37:57.167Z,102320.00
2018-11-03T12:40:26.070Z,102324.00
2018-11-03T12:42:54.903Z,102323.00
2018-11-03T12:45:23.783Z,102313.00
2018-11-03T12:47:52.709Z,102305.00
2018-11-03T12:50:21.562Z,102303.00
2018-11-03T12:52:50.417Z,102307.00
2018-11-03T12:55:19.324Z,102295.00
2018-11-03T12:57:48.346Z,102296.00
2018-11-03T13:00:17.222Z,102292.00
2018-11-03T13:02:46.631Z,102292.00
2018-11-03T13:05:15.708Z,102288.00
2018-11-03T13:07:45.538Z,102289.00
2018-11-03T13:10:14.539Z,102287.00
2018-11-03T13:12:43.627Z,102286.00
2018-11-03T13:15:13.452Z,102290.00
2018-11-03T13:17:42.375Z,102292.00
2018-11-03T13:20:12.755Z,102296.00
2018-11-03T13:22:42.326Z,102290.00
2018-11-03T13:25:11.767Z,102289.00
2018-11-03T13:27:41.374Z,102292.00
2018-11-03T13:30:12.726Z,102298.00
2018-11-03T13:32:41.665Z,102292.00
2018-11-03T13:35:12.015Z,102298.00
2018-11-03T13:37:41.239Z,102306.00
2018-11-03T13:40:11.669Z,102298.00
2018-11-03T13:42:40.758Z,102297.00
2018-11-03T13:45:10.268Z,102297.00
2018-11-03T13:47:39.674Z,102302.00
2018-11-03T13:50:14.353Z,102303.00
2018-11-03T13:52:47.615Z,102313.00
2018-11-03T13:55:16.492Z,102311.00
2018-11-03T13:57:46.308Z,102309.00
2018-11-03T14:00:16.493Z,102312.00
2018-11-03T14:02:46.303Z,102312.00
2018-11-03T14:05:15.115Z,102301.00
2018-11-03T14:07:44.106Z,102314.00
2018-11-03T14:10:15.258Z,102315.00
2018-11-03T14:12:44.929Z,102313.00
2018-11-03T14:15:15.231Z,102314.00
2018-11-03T14:17:44.147Z,102307.00
2018-11-03T14:20:14.159Z,102304.00
2018-11-03T14:22:43.973Z,102309.00
2018-11-03T14:25:15.118Z,102304.00
2018-11-03T14:27:45.269Z,102304.00
2018-11-03T14:30:14.439Z,102311.00
2018-11-03T14:32:43.530Z,102310.00
2018-11-03T14:35:13.439Z,102308.00
2018-11-03T14:37:42.330Z,102306.00
2018-11-03T14:40:16.551Z,102305.00
2018-11-03T14:42:46.159Z,102302.00
2018-11-03T14:45:16.356Z,102298.00
2018-11-03T14:47:45.205Z,102298.00
2018-11-03T14:50:14.120Z,102297.00
2018-11-03T14:52:43.753Z,102300.00
2018-11-03T14:55:13.372Z,102310.00
2018-11-03T14:57:42.289Z,102305.00
2018-11-03T15:00:13.132Z,102296.00
2018-11-03T15:02:42.117Z,102307.00
2018-11-03T15:05:11.842Z,102304.00
2018-11-03T15:07:40.715Z,102309.00
2018-11-03T15:10:11.403Z,102299.00
2018-11-03T15:12:41.026Z,102295.00
2018-11-03T15:15:12.154Z,102294.00
2018-11-03T15:17:41.096Z,102292.00
2018-11-03T15:20:11.015Z,102295.00
2018-11-03T15:22:40.268Z,102290.00
2018-11-03T15:25:10.592Z,102292.00
2018-11-03T15:27:41.112Z,102291.00
2018-11-03T15:30:11.656Z,102285.00
2018-11-03T15:32:41.355Z,102284.00
2018-11-03T15:35:11.133Z,102289.00
2018-11-03T15:37:40.154Z,102288.00
2018-11-03T15:40:11.784Z,102283.00
2018-11-03T15:42:40.751Z,102284.00
2018-11-03T15:45:13.116Z,102290.00
2018-11-03T15:47:42.500Z,102285.00
2018-11-03T15:50:11.882Z,102282.00
2018-11-03T15:52:40.920Z,102286.00
2018-11-03T15:55:09.810Z,102285.00
2018-11-03T15:57:38.662Z,102282.00
2018-11-03T16:00:11.758Z,102287.00
2018-11-03T16:02:40.911Z,102279.00
2018-11-03T16:05:09.904Z,102278.00
2018-11-03T16:07:38.880Z,102271.00
2018-11-03T16:10:08.607Z,102276.00
2018-11-03T16:12:37.689Z,102273.00
2018-11-03T16:15:08.348Z,102267.00
2018-11-03T16:17:37.478Z,102272.00
2018-11-03T16:20:07.775Z,102276.00
2018-11-03T16:22:36.994Z,102267.00
2018-11-03T16:25:07.770Z,102275.00
2018-11-03T16:27:36.955Z,102270.00
2018-11-03T16:30:08.826Z,102275.00
2018-11-03T16:32:38.063Z,102274.00
2018-11-03T16:35:07.134Z,102272.00
2018-11-03T16:37:36.262Z,102270.00
2018-11-03T16:40:06.166Z,102271.00
2018-11-03T16:42:35.091Z,102277.00
2018-11-03T16:45:04.161Z,102280.00
2018-11-03T16:47:33.078Z,102287.00
2018-11-03T16:50:01.970Z,102278.00
2018-11-03T16:52:30.965Z,102275.00
2018-11-03T16:54:59.880Z,102283.00
2018-11-03T16:57:28.859Z,102279.00
2018-11-03T16:59:58.270Z,102275.00
2018-11-03T17:02:27.258Z,102271.00
2018-11-03T17:04:56.271Z,102282.00
2018-11-03T17:07:26.086Z,102279.00
2018-11-03T17:09:55.039Z,102282.00
2018-11-03T17:12:23.985Z,102277.00
2018-11-03T17:14:52.907Z,102289.00
2018-11-03T17:17:21.772Z,102279.00
2018-11-03T17:19:50.698Z,102283.00
2018-11-03T17:22:19.557Z,102280.00
2018-11-03T17:24:48.476Z,102281.00
2018-11-03T17:27:17.347Z,102282.00
2018-11-03T17:29:46.255Z,102276.00
2018-11-03T17:32:15.143Z,102279.00
2018-11-03T17:34:44.000Z,102278.00
2018-11-03T17:37:12.920Z,102282.00
2018-11-03T17:39:41.871Z,102284.00
2018-11-03T17:42:10.847Z,102276.00
2018-11-03T17:44:39.754Z,102274.00
2018-11-03T17:47:08.839Z,102274.00
2018-11-03T17:49:37.840Z,102270.00
2018-11-03T17:52:07.870Z,102276.00
2018-11-03T17:54:36.826Z,102265.00
2018-11-03T17:57:05.817Z,102267.00
2018-11-03T17:59:34.626Z,102265.00
2018-11-03T18:02:03.600Z,102264.00
2018-11-03T18:04:32.554Z,102267.00
2018-11-03T18:07:01.467Z,102258.00
2018-11-03T18:09:30.379Z,102259.00
2018-11-03T18:11:59.534Z,102261.00
2018-11-03T18:14:28.462Z,102254.00
2018-11-03T18:16:57.407Z,102251.00
2018-11-03T18:19:26.262Z,102257.00
2018-11-03T18:21:55.199Z,102244.00
2018-11-03T18:24:24.075Z,102244.00
2018-11-03T18:26:52.930Z,102244.00
2018-11-03T18:29:21.820Z,102255.00
2018-11-03T18:31:50.754Z,102253.00
2018-11-03T18:34:19.940Z,102257.00
2018-11-03T18:36:48.906Z,102248.00
2018-11-03T18:39:17.826Z,102246.00
2018-11-03T18:41:46.869Z,102238.00
2018-11-03T18:44:16.242Z,102245.00
2018-11-03T18:46:45.412Z,102243.00
2018-11-03T18:49:14.255Z,102240.00
2018-11-03T18:51:43.278Z,102231.00
2018-11-03T18:54:12.220Z,102243.00
2018-11-03T18:56:41.855Z,102235.00
2018-11-03T18:59:10.847Z,102242.00
2018-11-03T19:01:39.762Z,102241.00
2018-11-03T19:04:08.654Z,102233.00
2018-11-03T19:06:37.534Z,102230.00
2018-11-03T19:09:07.746Z,102224.00
2018-11-03T19:11:36.571Z,102230.00
2018-11-03T19:14:05.719Z,102233.00
2018-11-03T19:16:34.715Z,102227.00
2018-11-03T19:19:03.615Z,102225.00
2018-11-03T19:21:32.515Z,102230.00
2018-11-03T19:24:01.406Z,102232.00
2018-11-03T19:26:30.387Z,102228.00
2018-11-03T19:28:59.367Z,102232.00
2018-11-03T19:31:28.306Z,102219.00
2018-11-03T19:33:59.697Z,102228.00
2018-11-03T19:36:28.679Z,102240.00
2018-11-03T19:38:57.611Z,102233.00
2018-11-03T19:41:26.621Z,102225.00
2018-11-03T19:43:55.386Z,102233.00
2018-11-03T19:46:24.294Z,102232.00
2018-11-03T19:48:53.230Z,102227.00
2018-11-03T19:51:22.150Z,102209.00
2018-11-03T19:53:53.293Z,102224.00
2018-11-03T19:56:22.238Z,102218.00
2018-11-03T19:58:51.292Z,102210.00
2018-11-03T20:01:20.738Z,102216.00
2018-11-03T20:03:49.567Z,102218.00
2018-11-03T20:06:18.491Z,102210.00
2018-11-03T20:08:47.355Z,102217.00
2018-11-03T20:11:16.321Z,102216.00
2018-11-03T20:13:45.271Z,102217.00
2018-11-03T20:16:14.128Z,102213.00
2018-11-03T20:18:43.103Z,102218.00
2018-11-03T20:21:12.012Z,102210.00
2018-11-03T20:23:40.907Z,102199.00
2018-11-03T20:26:09.915Z,102196.00
2018-11-03T20:28:38.800Z,102200.00
2018-11-03T20:31:08.351Z,102202.00
2018-11-03T20:33:37.349Z,102192.00
2018-11-03T20:36:06.291Z,102202.00
2018-11-03T20:38:35.184Z,102195.00
2018-11-03T20:41:04.056Z,102187.00
2018-11-03T20:43:32.959Z,102191.00
2018-11-03T20:46:01.833Z,102180.00
2018-11-03T20:48:30.743Z,102182.00
2018-11-03T20:51:04.970Z,102180.00
2018-11-03T20:53:33.838Z,102185.00
2018-11-03T20:56:02.832Z,102178.00
2018-11-03T20:58:31.762Z,102176.00
2018-11-03T21:01:00.735Z,102177.00
2018-11-03T21:03:29.604Z,102178.00
2018-11-03T21:05:58.487Z,102175.00
2018-11-03T21:08:27.376Z,102169.00
2018-11-03T21:10:56.379Z,102172.00
2018-11-03T21:13:25.547Z,102156.00
2018-11-03T21:15:54.458Z,102158.00
2018-11-03T21:18:23.332Z,102151.00
2018-11-03T21:20:52.266Z,102150.00
2018-11-03T21:23:21.187Z,102151.00
2018-11-03T21:25:50.435Z,102149.00
2018-11-03T21:28:19.314Z,102157.00
2018-11-03T21:30:48.311Z,102152.00
2018-11-03T21:33:17.337Z,102137.00
2018-11-03T21:35:46.114Z,102141.00
2018-11-03T21:40:23.674Z,102137.00
2018-11-03T21:45:01.491Z,102121.00
2018-11-03T21:47:30.387Z,102114.00
2018-11-03T21:49:59.291Z,102109.00
2018-11-03T21:52:28.286Z,102114.00
2018-11-03T21:54:57.158Z,102105.00
2018-11-03T21:57:26.066Z,102108.00
2018-11-03T21:59:54.960Z,102099.00
2018-11-03T22:02:23.822Z,102102.00
2018-11-03T22:04:52.720Z,102099.00
2018-11-03T22:07:21.602Z,102096.00
2018-11-03T22:09:50.563Z,102090.00
2018-11-03T22:12:19.558Z,102096.00
2018-11-03T22:14:48.476Z,102083.00
2018-11-03T22:17:17.370Z,102085.00
2018-11-03T22:19:46.250Z,102080.00
2018-11-03T22:22:15.221Z,102089.00
2018-11-03T22:24:44.115Z,102070.00
2018-11-03T22:27:13.434Z,102063.00
2018-11-03T22:29:42.314Z,102068.00
2018-11-03T22:32:11.202Z,102061.00
2018-11-03T22:34:40.138Z,102058.00
2018-11-03T22:37:09.146Z,102055.00
2018-11-03T22:39:37.987Z,102063.00
2018-11-03T22:42:07.002Z,102059.00
2018-11-03T22:44:35.867Z,102056.00
2018-11-03T22:47:04.795Z,102053.00
2018-11-03T22:49:33.641Z,102052.00
2018-11-03T22:52:05.886Z,102043.00
2018-11-03T22:54:35.600Z,102037.00
2018-11-03T22:57:04.656Z,102034.00
2018-11-03T22:59:33.531Z,102032.00
2018-11-03T23:02:02.438Z,102026.00
2018-11-03T23:04:31.352Z,102019.00
2018-11-03T23:07:00.496Z,102022.00
2018-11-03T23:09:29.370Z,102016.00
2018-11-03T23:11:58.264Z,102012.00
2018-11-03T23:14:27.218Z,102018.00
2018-11-03T23:16:56.055Z,102006.00
2018-11-03T23:19:24.947Z,102015.00
2018-11-03T23:21:53.835Z,101996.00
2018-11-03T23:24:22.714Z,102003.00
2018-11-03T23:26:51.881Z,102002.00
2018-11-03T23:29:20.868Z,101996.00
2018-11-03T23:31:49.767Z,102001.00
2018-11-03T23:34:18.674Z,101992.00
2018-11-03T23:36:47.569Z,101995.00
2018-11-03T23:39:16.386Z,101983.00
2018-11-03T23:41:45.371Z,101980.00
2018-11-03T23:44:14.782Z,101973.00
2018-11-03T23:46:43.713Z,101983.00
2018-11-03T23:49:12.643Z,101976.00
2018-11-03T23:51:41.506Z,101968.00
2018-11-03T23:54:10.418Z,101977.00
2018-11-03T23:56:39.301Z,101971.00
2018-11-03T23:59:08.264Z,101973.00
